createdAt,value
2018-05-09T00:02:26.690Z,2.27
2018-05-09T00:04:55.957Z,2.80
2018-05-09T00:07:25.232Z,2.77
2018-05-09T00:09:59.376Z,2.70
2018-05-09T00:12:28.671Z,2.83
2018-05-09T00:14:57.942Z,2.80
2018-05-09T00:17:27.959Z,2.67
2018-05-09T00:19:57.996Z,2.10
2018-05-09T00:22:27.492Z,2.77
2018-05-09T00:24:57.302Z,3.20
2018-05-09T00:27:26.566Z,2.53
2018-05-09T00:29:55.836Z,2.53
2018-05-09T00:32:25.100Z,2.90
2018-05-09T00:34:55.125Z,3.00
2018-05-09T00:37:24.375Z,2.43
2018-05-09T00:39:54.489Z,3.27
2018-05-09T00:42:23.741Z,2.47
2018-05-09T00:44:53.008Z,3.23
2018-05-09T00:47:22.312Z,2.77
2018-05-09T00:49:51.565Z,2.90
2018-05-09T00:52:20.838Z,3.10
2018-05-09T00:54:50.135Z,2.73
2018-05-09T00:57:20.263Z,2.93
2018-05-09T00:59:49.529Z,3.10
2018-05-09T01:02:19.581Z,2.73
2018-05-09T01:04:49.459Z,3.27
2018-05-09T01:07:18.744Z,3.73
2018-05-09T01:09:48.001Z,3.47
2018-05-09T01:12:17.283Z,3.10
2018-05-09T01:14:47.320Z,2.40
2018-05-09T01:17:16.573Z,2.73
2018-05-09T01:19:46.591Z,3.20
2018-05-09T01:22:17.008Z,2.90
2018-05-09T01:24:46.273Z,3.30
2018-05-09T01:27:15.531Z,3.37
2018-05-09T01:29:45.550Z,2.67
2018-05-09T01:32:15.639Z,2.90
2018-05-09T01:34:45.617Z,3.50
2018-05-09T01:37:14.879Z,3.10
2018-05-09T01:39:44.901Z,3.27
2018-05-09T01:42:14.940Z,2.60
2018-05-09T01:44:44.220Z,3.43
2018-05-09T01:47:14.260Z,3.73
2018-05-09T01:49:43.757Z,3.47
2018-05-09T01:52:13.022Z,3.00
2018-05-09T01:54:42.292Z,3.37
2018-05-09T01:57:11.569Z,2.97
2018-05-09T01:59:40.820Z,3.47
2018-05-09T02:02:10.106Z,3.40
2018-05-09T02:04:39.395Z,3.23
2018-05-09T02:07:08.666Z,3.80
2018-05-09T02:09:37.933Z,2.73
2018-05-09T02:12:07.952Z,3.20
2018-05-09T02:14:38.013Z,2.67
2018-05-09T02:17:11.287Z,3.40
2018-05-09T02:19:40.566Z,2.83
2018-05-09T02:22:09.913Z,3.10
2018-05-09T02:24:39.229Z,3.00
2018-05-09T02:27:08.560Z,3.70
2018-05-09T02:29:38.599Z,3.40
2018-05-09T02:32:07.869Z,3.20
2018-05-09T02:34:37.132Z,3.10
2018-05-09T02:37:06.417Z,3.27
2018-05-09T02:39:36.425Z,3.60
2018-05-09T02:42:05.815Z,3.30
2018-05-09T02:44:35.842Z,3.17
2018-05-09T02:47:05.870Z,4.03
2018-05-09T02:49:35.147Z,3.23
2018-05-09T02:52:05.204Z,3.27
2018-05-09T02:54:34.484Z,3.90
2018-05-09T02:57:03.850Z,4.10
2018-05-09T02:59:33.113Z,3.80
2018-05-09T03:02:02.382Z,3.20
2018-05-09T03:04:32.723Z,2.90
2018-05-09T03:07:01.982Z,4.07
2018-05-09T03:09:32.034Z,3.23
2018-05-09T03:12:01.284Z,3.90
2018-05-09T03:14:30.608Z,3.70
2018-05-09T03:17:00.665Z,3.33
2018-05-09T03:19:29.918Z,3.10
2018-05-09T03:21:59.945Z,3.67
2018-05-09T03:24:29.237Z,3.40
2018-05-09T03:26:59.307Z,3.30
2018-05-09T03:29:28.569Z,2.90
2018-05-09T03:31:58.588Z,3.67
2018-05-09T03:34:28.172Z,3.87
2018-05-09T03:36:58.209Z,3.50
2018-05-09T03:39:27.483Z,2.90
2018-05-09T03:41:56.745Z,3.17
2018-05-09T03:44:26.032Z,3.80
2018-05-09T03:46:55.289Z,3.50
2018-05-09T03:49:24.875Z,3.47
2018-05-09T03:51:54.185Z,4.97
2018-05-09T03:54:23.450Z,3.70
2018-05-09T03:56:52.726Z,3.57
2018-05-09T03:59:21.985Z,3.80
2018-05-09T04:02:09.105Z,3.30
2018-05-09T04:04:56.091Z,3.50
2018-05-09T04:10:32.844Z,4.10
2018-05-09T04:13:02.940Z,3.13
2018-05-09T04:15:32.161Z,3.53
2018-05-09T04:18:02.182Z,3.40
2018-05-09T04:20:31.487Z,3.20
2018-05-09T04:23:00.759Z,3.63
2018-05-09T04:25:30.137Z,3.93
2018-05-09T04:27:59.473Z,3.60
2018-05-09T04:30:28.743Z,4.00
2018-05-09T04:32:58.015Z,3.90
2018-05-09T04:35:27.307Z,3.13
2018-05-09T04:37:56.591Z,3.37
2018-05-09T04:40:25.850Z,3.83
2018-05-09T04:42:55.252Z,3.60
2018-05-09T04:45:28.219Z,3.43
2018-05-09T04:47:57.520Z,3.50
2018-05-09T04:50:26.882Z,3.53
2018-05-09T04:52:56.288Z,3.73
2018-05-09T04:55:25.735Z,3.60
2018-05-09T04:57:55.784Z,3.63
2018-05-09T05:00:25.835Z,3.17
2018-05-09T05:02:55.108Z,3.30
2018-05-09T05:05:24.430Z,3.57
2018-05-09T05:07:53.746Z,3.37
2018-05-09T05:10:23.032Z,3.13
2018-05-09T05:12:53.140Z,3.40
2018-05-09T05:15:23.184Z,3.07
2018-05-09T05:17:52.459Z,3.33
2018-05-09T05:20:22.539Z,3.93
2018-05-09T05:22:52.598Z,3.60
2018-05-09T05:25:21.925Z,3.27
2018-05-09T05:27:51.178Z,3.90
2018-05-09T05:30:21.232Z,2.90
2018-05-09T05:32:50.510Z,3.60
2018-05-09T05:35:20.594Z,3.90
2018-05-09T05:37:49.975Z,3.00
2018-05-09T05:40:19.247Z,2.83
2018-05-09T05:42:48.518Z,3.97
2018-05-09T05:45:18.666Z,3.07
2018-05-09T05:47:47.877Z,2.93
2018-05-09T05:50:17.303Z,3.23
2018-05-09T05:52:46.557Z,3.80
2018-05-09T05:55:15.828Z,2.90
2018-05-09T05:57:45.076Z,2.73
2018-05-09T06:00:14.346Z,2.90
2018-05-09T06:02:44.440Z,2.47
2018-05-09T06:05:13.701Z,2.97
2018-05-09T06:07:42.968Z,2.43
2018-05-09T06:10:12.986Z,2.47
2018-05-09T06:12:42.313Z,2.20
2018-05-09T06:15:11.580Z,2.37
2018-05-09T06:17:41.643Z,2.17
2018-05-09T06:20:10.971Z,2.27
2018-05-09T06:22:40.230Z,2.23
2018-05-09T06:25:11.037Z,2.50
2018-05-09T06:27:41.090Z,2.40
2018-05-09T06:30:10.826Z,1.97
2018-05-09T06:32:40.141Z,2.20
2018-05-09T06:35:09.396Z,2.30
2018-05-09T06:37:38.716Z,2.00
2018-05-09T06:40:07.915Z,1.97
2018-05-09T06:42:37.305Z,1.83
2018-05-09T06:45:07.317Z,2.17
2018-05-09T06:47:36.573Z,2.00
2018-05-09T06:50:06.627Z,1.77
2018-05-09T06:52:36.677Z,2.43
2018-05-09T06:55:06.014Z,2.03
2018-05-09T06:57:36.052Z,1.60
2018-05-09T07:00:05.350Z,2.30
2018-05-09T07:02:35.575Z,2.23
2018-05-09T07:05:04.842Z,2.17
2018-05-09T07:07:34.121Z,2.10
2018-05-09T07:10:03.374Z,2.57
2018-05-09T07:12:32.645Z,2.57
2018-05-09T07:15:04.212Z,2.30
2018-05-09T07:17:34.256Z,4.67
2018-05-09T07:20:03.506Z,3.07
2018-05-09T07:22:33.563Z,2.30
2018-05-09T07:25:02.869Z,2.27
2018-05-09T07:27:32.146Z,2.20
2018-05-09T07:30:02.071Z,2.67
2018-05-09T07:32:32.099Z,2.40
2018-05-09T07:35:01.376Z,2.40
2018-05-09T07:37:30.687Z,2.13
2018-05-09T07:40:00.754Z,2.00
2018-05-09T07:42:30.021Z,3.53
2018-05-09T07:44:59.292Z,1.87
2018-05-09T07:47:29.326Z,2.30
2018-05-09T07:49:59.165Z,1.83
2018-05-09T07:52:28.431Z,1.90
2018-05-09T07:54:58.451Z,2.13
2018-05-09T07:57:28.474Z,2.30
2018-05-09T07:59:57.807Z,2.00
2018-05-09T08:02:27.798Z,2.23
2018-05-09T08:04:57.078Z,1.90
2018-05-09T08:07:27.098Z,2.00
2018-05-09T08:09:57.931Z,1.83
2018-05-09T08:12:28.764Z,1.73
2018-05-09T08:14:58.363Z,2.07
2018-05-09T08:17:28.247Z,2.33
2018-05-09T08:19:57.568Z,2.60
2018-05-09T08:22:26.834Z,2.23
2018-05-09T08:24:56.091Z,2.80
2018-05-09T08:27:25.393Z,2.07
2018-05-09T08:29:55.443Z,2.30
2018-05-09T08:32:24.759Z,2.10
2018-05-09T08:34:54.010Z,2.10
2018-05-09T08:37:24.130Z,1.97
2018-05-09T08:39:54.178Z,2.10
2018-05-09T08:42:23.429Z,2.83
2018-05-09T08:44:52.741Z,2.63
2018-05-09T08:47:22.783Z,2.70
2018-05-09T08:49:52.817Z,2.30
2018-05-09T08:52:22.466Z,2.43
2018-05-09T08:54:51.752Z,1.97
2018-05-09T08:57:21.004Z,2.23
2018-05-09T08:59:51.019Z,2.13
2018-05-09T09:02:20.345Z,2.30
2018-05-09T09:04:49.631Z,2.93
2018-05-09T09:07:18.919Z,2.63
2018-05-09T09:09:48.942Z,2.80
2018-05-09T09:12:18.263Z,2.67
2018-05-09T09:14:48.259Z,2.30
2018-05-09T09:17:17.966Z,2.67
2018-05-09T09:19:47.989Z,2.60
2018-05-09T09:22:17.285Z,2.57
2018-05-09T09:24:47.310Z,2.30
2018-05-09T09:27:16.601Z,2.43
2018-05-09T09:29:45.902Z,2.93
2018-05-09T09:32:15.162Z,2.70
2018-05-09T09:34:44.417Z,3.20
2018-05-09T09:37:13.706Z,2.27
2018-05-09T09:39:42.975Z,3.00
2018-05-09T09:42:13.024Z,2.40
2018-05-09T09:44:43.143Z,2.33
2018-05-09T09:47:12.411Z,2.50
2018-05-09T09:49:41.715Z,2.17
2018-05-09T09:52:10.980Z,2.63
2018-05-09T09:54:40.261Z,2.77
2018-05-09T09:57:11.141Z,2.93
2018-05-09T09:59:40.411Z,2.33
2018-05-09T10:02:09.689Z,2.70
2018-05-09T10:04:38.955Z,2.30
2018-05-09T10:07:09.034Z,2.40
2018-05-09T10:09:38.325Z,2.70
2018-05-09T10:12:07.580Z,2.43
2018-05-09T10:14:37.634Z,2.20
2018-05-09T10:17:06.914Z,3.07
2018-05-09T10:19:36.172Z,2.40
2018-05-09T10:22:05.604Z,2.60
2018-05-09T10:24:35.638Z,2.40
2018-05-09T10:27:04.941Z,2.07
2018-05-09T10:29:34.251Z,2.23
2018-05-09T10:32:03.517Z,2.30
2018-05-09T10:34:33.552Z,2.17
2018-05-09T10:37:02.860Z,2.37
2018-05-09T10:39:32.132Z,2.70
2018-05-09T10:42:02.182Z,1.83
2018-05-09T10:44:31.447Z,2.43
2018-05-09T10:47:00.802Z,2.33
2018-05-09T10:49:30.160Z,2.53
2018-05-09T10:52:00.297Z,2.40
2018-05-09T10:54:29.572Z,2.50
2018-05-09T10:56:58.833Z,3.00
2018-05-09T10:59:28.104Z,2.70
2018-05-09T11:01:57.362Z,2.80
2018-05-09T11:04:28.136Z,2.27
2018-05-09T11:06:57.386Z,1.97
2018-05-09T11:09:26.665Z,2.57
2018-05-09T11:11:55.933Z,2.10
2018-05-09T11:14:25.176Z,2.03
2018-05-09T11:16:54.514Z,2.57
2018-05-09T11:19:24.555Z,2.40
2018-05-09T11:21:53.818Z,2.40
2018-05-09T11:24:23.951Z,2.77
2018-05-09T11:26:53.120Z,2.50
2018-05-09T11:29:22.389Z,2.50
2018-05-09T11:31:51.675Z,2.57
2018-05-09T11:34:20.998Z,2.90
2018-05-09T11:36:50.284Z,2.40
2018-05-09T11:39:19.577Z,3.03
2018-05-09T11:41:48.877Z,2.57
2018-05-09T11:44:22.215Z,2.73
2018-05-09T11:46:51.477Z,2.60
2018-05-09T11:49:20.737Z,2.63
2018-05-09T11:51:50.789Z,2.13
2018-05-09T11:54:21.460Z,2.27
2018-05-09T11:56:50.728Z,2.13
2018-05-09T11:59:20.003Z,2.43
2018-05-09T12:01:50.200Z,2.47
2018-05-09T12:04:19.447Z,3.80
2018-05-09T12:06:48.717Z,2.83
2018-05-09T12:09:18.770Z,2.80
2018-05-09T12:11:48.039Z,2.90
2018-05-09T12:14:18.167Z,2.17
2018-05-09T12:16:48.273Z,3.00
2018-05-09T12:19:18.368Z,2.60
2018-05-09T12:21:47.626Z,2.27
2018-05-09T12:24:16.915Z,2.73
2018-05-09T12:26:46.931Z,2.93
2018-05-09T12:29:16.203Z,2.80
2018-05-09T12:31:45.453Z,2.67
2018-05-09T12:34:14.718Z,2.57
2018-05-09T12:36:48.056Z,3.17
2018-05-09T12:39:17.352Z,2.83
2018-05-09T12:41:46.651Z,2.57
2018-05-09T12:44:15.917Z,2.77
2018-05-09T12:46:46.002Z,3.37
2018-05-09T12:49:15.262Z,2.87
2018-05-09T12:51:44.543Z,2.63
2018-05-09T12:54:13.810Z,3.37
2018-05-09T12:56:43.165Z,2.60
2018-05-09T12:59:12.396Z,3.00
2018-05-09T13:01:41.662Z,3.50
2018-05-09T13:04:11.184Z,2.40
2018-05-09T13:06:40.454Z,2.73
2018-05-09T13:09:09.720Z,3.53
2018-05-09T13:11:38.975Z,2.83
2018-05-09T13:14:08.243Z,2.80
2018-05-09T13:16:37.504Z,2.83
2018-05-09T13:19:06.753Z,2.57
2018-05-09T13:21:36.009Z,3.20
2018-05-09T13:24:06.083Z,2.70
2018-05-09T13:26:35.338Z,2.90
2018-05-09T13:29:05.385Z,3.03
2018-05-09T13:31:34.737Z,2.80
2018-05-09T13:34:03.976Z,3.77
2018-05-09T13:36:33.993Z,3.03
2018-05-09T13:39:03.565Z,2.40
2018-05-09T13:41:32.850Z,3.13
2018-05-09T13:44:02.164Z,2.27
2018-05-09T13:46:31.417Z,3.23
2018-05-09T13:49:00.681Z,2.80
2018-05-09T13:51:30.717Z,3.50
2018-05-09T13:54:00.787Z,2.87
2018-05-09T13:56:30.035Z,3.00
2018-05-09T13:59:00.062Z,2.60
2018-05-09T14:01:29.338Z,3.37
2018-05-09T14:03:59.386Z,2.90
2018-05-09T14:06:28.647Z,3.43
2018-05-09T14:08:58.673Z,3.20
2018-05-09T14:11:28.795Z,2.80
2018-05-09T14:13:58.841Z,3.00
2018-05-09T14:16:28.118Z,2.53
2018-05-09T14:18:58.158Z,2.97
2018-05-09T14:21:27.564Z,2.60
2018-05-09T14:23:56.834Z,3.03
2018-05-09T14:26:26.860Z,3.10
2018-05-09T14:28:56.143Z,3.00
2018-05-09T14:31:25.413Z,2.97
2018-05-09T14:33:59.864Z,3.83
2018-05-09T14:36:29.434Z,4.20
2018-05-09T14:38:58.697Z,3.23
2018-05-09T14:41:27.984Z,2.80
2018-05-09T14:43:58.937Z,3.10
2018-05-09T14:46:28.208Z,3.17
2018-05-09T14:48:57.502Z,3.00
2018-05-09T14:51:26.776Z,3.67
2018-05-09T14:53:56.138Z,3.10
2018-05-09T14:56:25.528Z,3.10
2018-05-09T14:58:54.806Z,2.77
2018-05-09T15:01:24.064Z,4.70
2018-05-09T15:03:53.371Z,3.80
2018-05-09T15:06:22.660Z,3.40
2018-05-09T15:08:51.962Z,3.17
2018-05-09T15:11:21.237Z,3.63
2018-05-09T15:13:51.374Z,3.53
2018-05-09T15:16:20.645Z,3.13
2018-05-09T15:18:54.690Z,3.20
2018-05-09T15:21:23.963Z,3.30
2018-05-09T15:23:53.273Z,3.60
2018-05-09T15:26:22.613Z,3.50
2018-05-09T15:28:51.802Z,3.60
2018-05-09T15:31:21.084Z,3.23
2018-05-09T15:33:50.357Z,3.70
2018-05-09T15:36:19.637Z,3.40
2018-05-09T15:38:53.105Z,3.13
2018-05-09T15:41:22.271Z,3.10
2018-05-09T15:43:51.735Z,3.43
2018-05-09T15:46:21.775Z,3.37
2018-05-09T15:48:51.037Z,3.23
2018-05-09T15:51:21.228Z,2.90
2018-05-09T15:53:50.506Z,3.20
2018-05-09T15:56:19.778Z,3.57
2018-05-09T15:58:49.056Z,3.60
2018-05-09T16:01:18.309Z,3.70
2018-05-09T16:03:47.605Z,3.23
2018-05-09T16:06:17.629Z,2.97
2018-05-09T16:08:46.914Z,3.40
2018-05-09T16:11:17.820Z,2.90
2018-05-09T16:13:47.123Z,3.13
2018-05-09T16:16:16.372Z,3.63
2018-05-09T16:18:45.662Z,3.57
2018-05-09T16:21:14.970Z,3.03
2018-05-09T16:23:44.358Z,3.70
2018-05-09T16:26:14.939Z,3.47
2018-05-09T16:28:44.792Z,3.10
2018-05-09T16:31:14.847Z,3.10
2018-05-09T16:33:44.137Z,3.23
2018-05-09T16:36:13.483Z,3.50
2018-05-09T16:38:42.784Z,3.50
2018-05-09T16:41:12.073Z,4.07
2018-05-09T16:43:41.392Z,3.40
2018-05-09T16:46:10.761Z,3.53
2018-05-09T16:48:40.180Z,2.63
2018-05-09T16:51:09.586Z,3.30
2018-05-09T16:53:39.015Z,2.53
2018-05-09T16:56:09.133Z,3.00
2018-05-09T16:58:39.309Z,3.33
2018-05-09T17:01:08.691Z,3.50
2018-05-09T17:03:37.842Z,3.27
2018-05-09T17:06:07.311Z,3.13
2018-05-09T17:08:36.578Z,3.50
2018-05-09T17:11:05.914Z,3.33
2018-05-09T17:13:35.184Z,3.40
2018-05-09T17:16:04.472Z,3.17
2018-05-09T17:18:34.597Z,3.40
2018-05-09T17:21:04.653Z,3.80
2018-05-09T17:23:33.915Z,3.03
2018-05-09T17:26:03.299Z,3.43
2018-05-09T17:28:32.570Z,3.33
2018-05-09T17:31:01.841Z,3.37
2018-05-09T17:33:31.126Z,3.70
2018-05-09T17:36:00.420Z,3.60
2018-05-09T17:38:29.712Z,4.30
2018-05-09T17:40:59.850Z,4.40
2018-05-09T17:43:29.117Z,4.00
2018-05-09T17:45:58.396Z,3.33
2018-05-09T17:48:27.676Z,4.20
2018-05-09T17:50:57.022Z,4.20
2018-05-09T17:53:26.327Z,3.60
2018-05-09T17:55:56.368Z,4.30
2018-05-09T17:58:25.775Z,4.50
2018-05-09T18:00:55.140Z,3.93
2018-05-09T18:03:27.170Z,3.40
2018-05-09T18:05:56.512Z,3.70
2018-05-09T18:08:25.775Z,3.47
2018-05-09T18:10:55.046Z,3.60
2018-05-09T18:13:24.376Z,4.03
2018-05-09T18:15:53.645Z,4.10
2018-05-09T18:18:23.081Z,4.00
2018-05-09T18:20:52.358Z,4.00
2018-05-09T18:23:21.644Z,3.43
2018-05-09T18:25:50.919Z,3.67
2018-05-09T18:28:21.037Z,3.67
2018-05-09T18:30:50.325Z,3.53
2018-05-09T18:33:19.574Z,4.00
2018-05-09T18:35:48.835Z,3.83
2018-05-09T18:38:18.893Z,3.90
2018-05-09T18:40:48.212Z,4.80
2018-05-09T18:43:17.592Z,4.30
2018-05-09T18:45:47.380Z,3.90
2018-05-09T18:48:17.402Z,4.03
2018-05-09T18:50:47.437Z,4.10
2018-05-09T18:53:16.827Z,3.53
2018-05-09T18:55:46.131Z,3.50
2018-05-09T18:58:16.151Z,4.10
2018-05-09T19:00:45.435Z,3.80
2018-05-09T19:03:15.482Z,3.93
2018-05-09T19:05:44.755Z,3.77
2018-05-09T19:08:14.780Z,4.50
2018-05-09T19:10:44.071Z,4.50
2018-05-09T19:13:14.095Z,3.93
2018-05-09T19:15:43.359Z,4.63
2018-05-09T19:18:14.141Z,3.90
2018-05-09T19:20:43.400Z,4.90
2018-05-09T19:23:13.659Z,3.87
2018-05-09T19:25:42.713Z,4.27
2018-05-09T19:28:13.521Z,3.67
2018-05-09T19:30:42.805Z,3.80
2018-05-09T19:33:12.077Z,5.07
2018-05-09T19:35:41.370Z,4.20
2018-05-09T19:38:11.398Z,4.20
2018-05-09T19:40:40.671Z,4.30
2018-05-09T19:43:10.766Z,4.80
2018-05-09T19:45:40.024Z,5.40
2018-05-09T19:48:09.300Z,4.13
2018-05-09T19:50:39.343Z,4.10
2018-05-09T19:53:08.655Z,4.40
2018-05-09T19:55:37.931Z,3.83
2018-05-09T19:58:07.203Z,4.30
2018-05-09T20:00:36.472Z,5.53
2018-05-09T20:03:05.789Z,3.90
2018-05-09T20:05:35.074Z,3.63
2018-05-09T20:08:04.342Z,4.37
2018-05-09T20:10:33.689Z,4.67
2018-05-09T20:13:02.978Z,4.77
2018-05-09T20:15:32.215Z,3.80
2018-05-09T20:18:02.271Z,5.20
2018-05-09T20:20:31.590Z,4.03
2018-05-09T20:23:00.912Z,4.23
2018-05-09T20:25:30.204Z,4.60
2018-05-09T20:27:59.823Z,3.87
2018-05-09T20:30:34.573Z,4.13
2018-05-09T20:33:03.938Z,4.47
2018-05-09T20:35:33.209Z,4.50
2018-05-09T20:38:02.465Z,4.60
2018-05-09T20:40:32.513Z,5.53
2018-05-09T20:43:01.778Z,4.63
2018-05-09T20:45:31.060Z,4.77
2018-05-09T20:48:00.333Z,4.70
2018-05-09T20:50:29.605Z,5.20
2018-05-09T20:52:58.890Z,4.37
2018-05-09T20:55:28.939Z,4.43
2018-05-09T20:57:59.731Z,4.10
2018-05-09T21:00:28.982Z,3.90
2018-05-09T21:02:58.316Z,4.50
2018-05-09T21:05:27.621Z,3.90
2018-05-09T21:07:57.968Z,4.80
2018-05-09T21:10:28.198Z,4.40
2018-05-09T21:12:58.267Z,3.60
2018-05-09T21:15:27.533Z,3.70
2018-05-09T21:17:57.634Z,4.00
2018-05-09T21:20:27.663Z,3.87
2018-05-09T21:22:57.724Z,4.50
2018-05-09T21:25:27.103Z,4.13
2018-05-09T21:27:57.146Z,4.50
2018-05-09T21:30:26.681Z,3.20
2018-05-09T21:32:55.980Z,4.07
2018-05-09T21:35:25.372Z,3.40
2018-05-09T21:37:55.348Z,4.33
2018-05-09T21:40:24.602Z,4.70
2018-05-09T21:42:53.868Z,4.03
2018-05-09T21:45:23.241Z,3.93
2018-05-09T21:47:52.525Z,4.03
2018-05-09T21:50:22.629Z,3.77
2018-05-09T21:52:53.504Z,3.77
2018-05-09T21:55:22.973Z,3.50
2018-05-09T21:57:52.300Z,3.40
2018-05-09T22:00:21.572Z,3.40
2018-05-09T22:02:51.696Z,3.53
2018-05-09T22:05:21.666Z,3.10
2018-05-09T22:07:51.056Z,4.23
2018-05-09T22:10:20.343Z,3.50
2018-05-09T22:12:49.595Z,3.47
2018-05-09T22:15:18.988Z,3.83
2018-05-09T22:17:48.388Z,3.97
2018-05-09T22:20:17.680Z,4.00
2018-05-09T22:22:47.029Z,3.97
2018-05-09T22:25:17.080Z,4.17
2018-05-09T22:27:46.391Z,4.67
2018-05-09T22:30:15.687Z,3.30
2018-05-09T22:32:45.093Z,3.63
2018-05-09T22:37:49.939Z,3.83
2018-05-09T22:40:19.224Z,4.00
2018-05-09T22:42:48.718Z,4.40
2018-05-09T22:45:18.009Z,3.30
2018-05-09T22:47:48.034Z,3.27
2018-05-09T22:50:17.289Z,4.83
2018-05-09T22:52:46.562Z,4.27
2018-05-09T22:55:16.669Z,3.73
2018-05-09T22:57:45.946Z,5.30
2018-05-09T23:00:15.329Z,3.90
2018-05-09T23:02:44.361Z,3.80
2018-05-09T23:05:13.630Z,3.40
2018-05-09T23:07:43.672Z,3.73
2018-05-09T23:10:12.980Z,3.07
2018-05-09T23:12:42.229Z,3.67
2018-05-09T23:15:12.991Z,3.60
2018-05-09T23:17:42.254Z,3.50
2018-05-09T23:20:11.603Z,3.77
2018-05-09T23:22:41.613Z,3.80
2018-05-09T23:25:10.906Z,3.80
2018-05-09T23:27:40.950Z,3.60
2018-05-09T23:30:10.196Z,4.40
2018-05-09T23:32:40.247Z,4.10
2018-05-09T23:35:09.571Z,4.00
2018-05-09T23:37:38.825Z,4.00
2018-05-09T23:40:08.862Z,3.67
2018-05-09T23:42:38.885Z,4.67
2018-05-09T23:45:08.206Z,4.40
2018-05-09T23:47:37.474Z,4.07
2018-05-09T23:50:07.490Z,4.60
2018-05-09T23:52:37.535Z,4.00
2018-05-09T23:55:06.878Z,4.43
2018-05-09T23:57:36.160Z,4.20
